Time;durP1;ratioP1;P1;durP2;ratioP2;P2;SDS_P1;SDS_P2;PMS_P1;PMS_P2;Temp;Humidity;BMP_temperature;BMP_pressure;BME280_temperature;BME280_humidity;BME280_pressure;Samples;Min_cycle;Max_cycle;Signal;HPM_P1;HPM_P2
2022/11/22 00:02:10;;;;;;;;;;;;;;;;;;4948617;29;19914;-81
2022/11/22 00:04:36;;;;;;;;;;;;;;;;;;4939727;29;19915;-81
2022/11/22 00:07:01;;;;;;;;;;;;;;;;;;4957445;29;20040;-81
2022/11/22 00:09:26;;;;;;;;;;;;;;;;;;4955952;29;19921;-81
2022/11/22 00:11:52;;;;;;;;;;;;;;;;;;4958941;29;19918;-81
2022/11/22 00:14:17;;;;;;;;;;;;;;;;;;4958019;28;19920;-81
2022/11/22 00:16:43;;;;;;;;;;;;;;;;;;4959518;28;20273;-82
2022/11/22 00:19:08;;;;;;;;;;;;;;;;;;4962600;28;19915;-82
2022/11/22 00:21:33;;;;;;;;;;;;;;;;;;4945784;29;19922;-82
2022/11/22 00:23:59;;;;;;;;;;;;;;;;;;4961646;29;19937;-82
2022/11/22 00:26:24;;;;;;;;;;;;;;;;;;4962607;29;19985;-82
2022/11/22 00:28:50;;;;;;;;;;;;;;;;;;4961960;29;19926;-82
2022/11/22 00:31:15;;;;;;;;;;;;;;;;;;4963155;29;19914;-81
2022/11/22 00:33:40;;;;;;;;;;;;;;;;;;4962298;29;20461;-82
2022/11/22 00:36:06;;;;;;;;;;;;;;;;;;4944188;29;19919;-81
2022/11/22 00:38:31;;;;;;;;;;;;;;;;;;4960423;29;19914;-81
2022/11/22 00:40:56;;;;;;;;;;;;;;;;;;4961192;29;19921;-80
2022/11/22 00:43:22;;;;;;;;;;;;;;;;;;4961535;29;19925;-81
2022/11/22 00:45:47;;;;;;;;;;;;;;;;;;4961809;29;19950;-80
2022/11/22 00:48:13;;;;;;;;;;;;;;;;;;4962062;29;19919;-81
2022/11/22 00:50:38;;;;;;;;;;;;;;;;;;4962684;29;19921;-80
2022/11/22 00:53:03;;;;;;;;;;;;;;;;;;4961764;29;19922;-80
2022/11/22 00:55:29;;;;;;;;;;;;;;;;;;4960415;29;20374;-81
2022/11/22 00:57:54;;;;;;;;;;;;;;;;;;4960753;29;19979;-81
2022/11/22 01:00:19;;;;;;;;;;;;;;;;;;4960719;29;20461;-82
2022/11/22 01:02:45;;;;;;;;;;;;;;;;;;4961992;29;19914;-81
2022/11/22 01:05:10;;;;;;;;;;;;;;;;;;4960703;29;20393;-81
2022/11/22 01:07:36;;;;;;;;;;;;;;;;;;4960101;29;20001;-81
2022/11/22 01:10:01;;;;;;;;;;;;;;;;;;4944337;29;19914;-81
2022/11/22 01:12:26;;;;;;;;;;;;;;;;;;4960081;28;19922;-81
2022/11/22 01:14:52;;;;;;;;;;;;;;;;;;4957308;29;20498;-80
2022/11/22 01:17:17;;;;;;;;;;;;;;;;;;4957979;29;19914;-80
2022/11/22 01:19:42;;;;;;;;;;;;;;;;;;4941259;29;19937;-81
2022/11/22 01:22:08;;;;;;;;;;;;;;;;;;4959204;29;19993;-81
2022/11/22 01:24:33;;;;;;;;;;;;;;;;;;4958568;29;19957;-80
2022/11/22 01:26:58;;;;;;;;;;;;;;;;;;4959188;28;19915;-81
2022/11/22 01:29:24;;;;;;;;;;;;;;;;;;5049059;23;19918;-83
2022/11/22 01:31:50;;;;;;;;;;;;;;;;;;4978970;29;20389;-83
2022/11/22 01:34:15;;;;;;;;;;;;;;;;;;4962795;29;20051;-83
2022/11/22 01:36:41;;;;;;;;;;;;;;;;;;4978948;29;19918;-84
2022/11/22 01:39:06;;;;;;;;;;;;;;;;;;4979230;29;20342;-83
2022/11/22 01:41:32;;;;;;;;;;;;;;;;;;4978417;29;20433;-84
2022/11/22 01:43:58;;;;;;;;;;;;;;;;;;4960777;29;19921;-82
2022/11/22 01:46:24;;;;;;;;;;;;;;;;;;4945719;29;19915;-83
2022/11/22 01:48:49;;;;;;;;;;;;;;;;;;4979225;28;20405;-83
2022/11/22 01:51:15;;;;;;;;;;;;;;;;;;4963003;29;19902;-84
2022/11/22 01:53:40;;;;;;;;;;;;;;;;;;4978073;29;19922;-84
2022/11/22 01:56:06;;;;;;;;;;;;;;;;;;4970543;29;19918;-82
2022/11/22 01:58:32;;;;;;;;;;;;;;;;;;4969554;28;19922;-84
2022/11/22 02:00:57;;;;;;;;;;;;;;;;;;4975098;28;19915;-83
2022/11/22 02:03:25;;;;;;;;;;;;;;;;;;4978703;28;19966;-84
2022/11/22 02:05:51;;;;;;;;;;;;;;;;;;4979127;29;19978;-84
2022/11/22 02:08:17;;;;;;;;;;;;;;;;;;4980156;28;20382;-83
2022/11/22 02:10:45;;;;;;;;;;;;;;;;;;4980872;29;19918;-83
2022/11/22 02:13:11;;;;;;;;;;;;;;;;;;4981417;28;19906;-84
2022/11/22 02:15:37;;;;;;;;;;;;;;;;;;4981164;28;19911;-84
2022/11/22 02:18:04;;;;;;;;;;;;;;;;;;4981332;28;19909;-84
2022/11/22 02:20:32;;;;;;;;;;;;;;;;;;4980787;28;19918;-84
2022/11/22 02:22:58;;;;;;;;;;;;;;;;;;4979624;28;19933;-84
2022/11/22 02:25:27;;;;;;;;;;;;;;;;;;4979680;29;19915;-83
2022/11/22 02:27:52;;;;;;;;;;;;;;;;;;4964267;29;19905;-84
2022/11/22 02:30:18;;;;;;;;;;;;;;;;;;4964677;28;20104;-84
2022/11/22 02:35:28;;;;;;;;;;;;;;;;;;5078994;23;19911;-84
2022/11/22 02:37:54;;;;;;;;;;;;;;;;;;5327429;23;19969;-84
2022/11/22 02:42:54;;;;;;;;;;;;;;;;;;5733573;23;19941;-84
2022/11/22 02:48:07;;;;;;;;;;;;;;;;;;5143582;23;19911;-84
2022/11/22 02:50:38;;;;;;;;;;;;;;;;;;5161538;23;19962;-82
2022/11/22 02:53:04;;;;;;;;;;;;;;;;;;5100038;23;20052;-81
2022/11/22 03:00:53;;;;;;;;;;;;;;;;;;5371541;23;19911;-84
2022/11/22 03:03:21;;;;;;;;;;;;;;;;;;4979312;28;19903;-82
2022/11/22 03:05:47;;;;;;;;;;;;;;;;;;4977979;29;19914;-82
2022/11/22 03:08:12;;;;;;;;;;;;;;;;;;4959325;29;19942;-83
2022/11/22 03:10:38;;;;;;;;;;;;;;;;;;4978540;28;19902;-84
2022/11/22 03:18:23;;;;;;;;;;;;;;;;;;5896084;23;20036;-85
2022/11/22 03:20:51;;;;;;;;;;;;;;;;;;4964492;28;19915;-84
2022/11/22 03:31:17;;;;;;;;;;;;;;;;;;5730771;23;19910;-85
2022/11/22 03:36:28;;;;;;;;;;;;;;;;;;5408279;23;19930;-79
2022/11/22 03:38:53;;;;;;;;;;;;;;;;;;4953853;29;19914;-81
2022/11/22 03:41:19;;;;;;;;;;;;;;;;;;4971673;29;19914;-82
2022/11/22 03:43:44;;;;;;;;;;;;;;;;;;4941585;29;19910;-80
2022/11/22 03:46:09;;;;;;;;;;;;;;;;;;4954081;29;20274;-80
2022/11/22 04:15:40;;;;;;;;;;;;;;;;;;5193072;23;19926;-86
2022/11/22 04:18:11;;;;;;;;;;;;;;;;;;4963289;28;19910;-86
2022/11/22 10:30:21;;;;;;;;;;;;;;;;;;5155576;23;19911;-83
2022/11/22 10:35:20;;;;;;;;;;;;;;;;;;4960596;28;19911;-83
2022/11/22 10:37:48;;;;;;;;;;;;;;;;;;4980585;23;19910;-84
2022/11/22 10:40:14;;;;;;;;;;;;;;;;;;4964338;28;19905;-83
2022/11/22 10:42:39;;;;;;;;;;;;;;;;;;4968063;28;19918;-78
2022/11/22 10:45:05;;;;;;;;;;;;;;;;;;4954998;29;20357;-79
2022/11/22 10:47:30;;;;;;;;;;;;;;;;;;4956941;29;19937;-78
2022/11/22 10:49:56;;;;;;;;;;;;;;;;;;4956741;29;20243;-77
2022/11/22 10:52:21;;;;;;;;;;;;;;;;;;4955868;29;20057;-78
2022/11/22 11:05:34;;;;;;;;;;;;;;;;;;5789173;23;19973;-85
2022/11/22 11:18:47;;;;;;;;;;;;;;;;;;6000212;23;19921;-84
2022/11/22 11:21:12;;;;;;;;;;;;;;;;;;4960920;28;19907;-84
2022/11/22 11:23:39;;;;;;;;;;;;;;;;;;4929440;29;19935;-84
2022/11/22 11:26:16;;;;;;;;;;;;;;;;;;5827861;23;19914;-84
2022/11/22 11:28:42;;;;;;;;;;;;;;;;;;5386137;23;19938;-82
2022/11/22 11:48:12;;;;;;;;;;;;;;;;;;6055407;23;19921;-84
2022/11/22 11:56:02;;;;;;;;;;;;;;;;;;5493340;23;20209;-87
2022/11/22 11:58:45;;;;;;;;;;;;;;;;;;5227030;23;19935;-83
2022/11/22 12:22:46;;;;;;;;;;;;;;;;;;5079846;23;19927;-83
2022/11/22 12:30:28;;;;;;;;;;;;;;;;;;5173376;23;19914;-83
2022/11/22 12:32:54;;;;;;;;;;;;;;;;;;4951457;28;19902;-85
2022/11/22 12:35:21;;;;;;;;;;;;;;;;;;4967122;28;19925;-84
2022/11/22 12:37:47;;;;;;;;;;;;;;;;;;5295366;23;20010;-84
2022/11/22 12:40:12;;;;;;;;;;;;;;;;;;5761854;23;19953;-84
2022/11/22 12:42:48;;;;;;;;;;;;;;;;;;;;;
2022/11/22 12:47:56;;;;;;;;;;;;;;;;;;5795344;23;19910;-83
2022/11/22 12:50:22;;;;;;;;;;;;;;;;;;4967087;28;19958;-84
2022/11/22 12:52:50;;;;;;;;;;;;;;;;;;5201590;23;19910;-84
2022/11/22 13:00:44;;;;;;;;;;;;;;;;;;5022648;23;19926;-84
2022/11/22 13:03:11;;;;;;;;;;;;;;;;;;4965546;29;19929;-85
2022/11/22 13:05:36;;;;;;;;;;;;;;;;;;4981240;29;19928;-83
2022/11/22 13:08:02;;;;;;;;;;;;;;;;;;4981852;28;19907;-84
2022/11/22 13:10:28;;;;;;;;;;;;;;;;;;4981993;28;19989;-85
2022/11/22 13:18:17;;;;;;;;;;;;;;;;;;5635363;23;19926;-84
2022/11/22 13:20:42;;;;;;;;;;;;;;;;;;4960731;29;19915;-82
2022/11/22 13:23:08;;;;;;;;;;;;;;;;;;4978664;28;20338;-84
2022/11/22 13:25:34;;;;;;;;;;;;;;;;;;4977138;28;19930;-83
2022/11/22 13:28:00;;;;;;;;;;;;;;;;;;4981274;29;19914;-83
2022/11/22 13:30:33;;;;;;;;;;;;;;;;;;4981660;28;19902;-85
2022/11/22 13:43:46;;;;;;;;;;;;;;;;;;5309872;23;19914;-86
2022/11/22 13:46:18;;;;;;;;;;;;;;;;;;4965068;28;19933;-84
2022/11/22 13:48:55;;;;;;;;;;;;;;;;;;5605735;23;19918;-83
2022/11/22 13:59:47;;;;;;;;;;;;;;;;;;5449101;23;19954;-80
2022/11/22 14:02:15;;;;;;;;;;;;;;;;;;4961502;29;20293;-81
2022/11/22 14:04:41;;;;;;;;;;;;;;;;;;4945806;29;19914;-78
2022/11/22 14:07:06;;;;;;;;;;;;;;;;;;4956487;29;20395;-77
2022/11/22 14:09:32;;;;;;;;;;;;;;;;;;4949450;28;19915;-78
2022/11/22 14:11:57;;;;;;;;;;;;;;;;;;4939089;29;19918;-79
2022/11/22 14:14:23;;;;;;;;;;;;;;;;;;4939064;29;19915;-79
2022/11/22 14:16:48;;;;;;;;;;;;;;;;;;4937752;29;19922;-78
2022/11/22 14:19:13;;;;;;;;;;;;;;;;;;4937537;29;19915;-78
2022/11/22 14:21:42;;;;;;;;;;;;;;;;;;4937871;29;20118;-78
2022/11/22 14:24:08;;;;;;;;;;;;;;;;;;4938762;29;19915;-79
2022/11/22 14:26:33;;;;;;;;;;;;;;;;;;4940354;29;19914;-78
2022/11/22 14:28:59;;;;;;;;;;;;;;;;;;4940541;29;20379;-78
2022/11/22 14:31:24;;;;;;;;;;;;;;;;;;4939953;29;19918;-80
2022/11/22 14:33:49;;;;;;;;;;;;;;;;;;4939851;29;19915;-79
2022/11/22 14:36:15;;;;;;;;;;;;;;;;;;4938136;29;20077;-80
2022/11/22 14:38:40;;;;;;;;;;;;;;;;;;4906424;29;20382;-79
2022/11/22 14:41:06;;;;;;;;;;;;;;;;;;4939803;29;20279;-79
2022/11/22 14:43:31;;;;;;;;;;;;;;;;;;4937031;29;19915;-78
2022/11/22 14:45:58;;;;;;;;;;;;;;;;;;4938926;29;19915;-78
2022/11/22 14:48:23;;;;;;;;;;;;;;;;;;4940142;29;19915;-79
2022/11/22 14:50:49;;;;;;;;;;;;;;;;;;4940481;29;20438;-80
2022/11/22 14:53:15;;;;;;;;;;;;;;;;;;4938579;29;20327;-80
2022/11/22 14:55:40;;;;;;;;;;;;;;;;;;4938257;29;19973;-80
2022/11/22 14:58:05;;;;;;;;;;;;;;;;;;4938401;29;19925;-80
2022/11/22 15:00:31;;;;;;;;;;;;;;;;;;4939046;29;20446;-80
2022/11/22 15:02:56;;;;;;;;;;;;;;;;;;4940897;29;19915;-79
2022/11/22 15:19:27;;;;;;;;;;;;;;;;;;5976474;23;19920;-83
2022/11/22 15:38:12;;;;;;;;;;;;;;;;;;4947163;29;19926;-81
2022/11/22 15:40:38;;;;;;;;;;;;;;;;;;4938035;29;20287;-80
2022/11/22 15:43:03;;;;;;;;;;;;;;;;;;4935757;29;19915;-80
2022/11/22 15:45:29;;;;;;;;;;;;;;;;;;4936279;29;20355;-80
2022/11/22 15:47:54;;;;;;;;;;;;;;;;;;4935484;29;20398;-80
2022/11/22 15:50:19;;;;;;;;;;;;;;;;;;4936183;29;19915;-80
2022/11/22 15:52:45;;;;;;;;;;;;;;;;;;4934892;29;20046;-80
2022/11/22 15:55:10;;;;;;;;;;;;;;;;;;4934907;29;20053;-80
2022/11/22 15:57:36;;;;;;;;;;;;;;;;;;4935925;29;19914;-80
2022/11/22 16:00:19;;;;;;;;;;;;;;;;;;4934952;29;19922;-80
2022/11/22 16:03:10;;;;;;;;;;;;;;;;;;4934860;29;19931;-80
2022/11/22 16:05:35;;;;;;;;;;;;;;;;;;4934812;29;19915;-80
2022/11/22 16:08:00;;;;;;;;;;;;;;;;;;4935724;29;20013;-79
2022/11/22 16:10:26;;;;;;;;;;;;;;;;;;4934391;29;20294;-79
2022/11/22 16:12:51;;;;;;;;;;;;;;;;;;4934195;29;19914;-80
2022/11/22 16:15:16;;;;;;;;;;;;;;;;;;4935309;29;19930;-79
2022/11/22 16:17:42;;;;;;;;;;;;;;;;;;4935728;29;20351;-80
2022/11/22 16:20:29;;;;;;;;;;;;;;;;;;4937890;29;19914;-81
2022/11/22 16:22:59;;;;;;;;;;;;;;;;;;4939472;29;19974;-81
2022/11/22 16:25:25;;;;;;;;;;;;;;;;;;4943239;29;19954;-81
2022/11/22 16:27:50;;;;;;;;;;;;;;;;;;4944492;29;20393;-81
2022/11/22 16:30:16;;;;;;;;;;;;;;;;;;4949923;29;19922;-81
2022/11/22 16:32:41;;;;;;;;;;;;;;;;;;4942105;29;19948;-82
2022/11/22 16:35:06;;;;;;;;;;;;;;;;;;4941596;29;20001;-81
2022/11/22 16:37:32;;;;;;;;;;;;;;;;;;4951716;29;19925;-82
2022/11/22 16:39:58;;;;;;;;;;;;;;;;;;4952873;29;19911;-83
2022/11/22 16:42:23;;;;;;;;;;;;;;;;;;4954437;29;19915;-83
2022/11/22 16:44:49;;;;;;;;;;;;;;;;;;4955227;29;19939;-83
2022/11/22 16:47:14;;;;;;;;;;;;;;;;;;4953280;29;19939;-83
2022/11/22 16:49:40;;;;;;;;;;;;;;;;;;4936725;29;19915;-83
2022/11/22 16:52:05;;;;;;;;;;;;;;;;;;4953204;29;19915;-83
2022/11/22 16:54:31;;;;;;;;;;;;;;;;;;4921481;29;19919;-83
2022/11/22 16:56:56;;;;;;;;;;;;;;;;;;4954882;29;19930;-83
2022/11/22 16:59:21;;;;;;;;;;;;;;;;;;4956455;29;19938;-83
2022/11/22 17:01:47;;;;;;;;;;;;;;;;;;4956220;29;19919;-83
2022/11/22 17:04:12;;;;;;;;;;;;;;;;;;4955292;29;19918;-83
2022/11/22 17:06:39;;;;;;;;;;;;;;;;;;4957625;29;19914;-82
2022/11/22 17:09:05;;;;;;;;;;;;;;;;;;4960985;29;19906;-83
2022/11/22 17:11:30;;;;;;;;;;;;;;;;;;4960291;29;19895;-83
2022/11/22 17:13:56;;;;;;;;;;;;;;;;;;4960738;29;19914;-83
2022/11/22 17:16:21;;;;;;;;;;;;;;;;;;4961454;29;19938;-83
2022/11/22 17:18:47;;;;;;;;;;;;;;;;;;4929932;29;19922;-83
2022/11/22 17:21:12;;;;;;;;;;;;;;;;;;4945161;29;19915;-83
2022/11/22 17:23:38;;;;;;;;;;;;;;;;;;4943707;29;19921;-83
2022/11/22 17:26:03;;;;;;;;;;;;;;;;;;4945454;29;19946;-83
2022/11/22 17:28:32;;;;;;;;;;;;;;;;;;4945504;29;19899;-83
2022/11/22 17:30:58;;;;;;;;;;;;;;;;;;4944657;29;19915;-83
2022/11/22 17:33:24;;;;;;;;;;;;;;;;;;4929690;29;19915;-83
2022/11/22 17:35:53;;;;;;;;;;;;;;;;;;4945638;29;20008;-83
2022/11/22 17:38:18;;;;;;;;;;;;;;;;;;4958898;29;19966;-83
2022/11/22 17:40:44;;;;;;;;;;;;;;;;;;4959234;29;19914;-83
2022/11/22 17:43:09;;;;;;;;;;;;;;;;;;4943444;29;19915;-83
2022/11/22 17:45:39;;;;;;;;;;;;;;;;;;4958607;29;19982;-83
2022/11/22 17:48:04;;;;;;;;;;;;;;;;;;4959467;29;19915;-84
2022/11/22 17:50:30;;;;;;;;;;;;;;;;;;4942073;29;19949;-83
2022/11/22 17:52:56;;;;;;;;;;;;;;;;;;4917292;29;19915;-83
2022/11/22 17:55:22;;;;;;;;;;;;;;;;;;4947856;29;19946;-83
2022/11/22 17:57:47;;;;;;;;;;;;;;;;;;4952940;29;19922;-83
2022/11/22 18:00:13;;;;;;;;;;;;;;;;;;4955096;29;19915;-83
2022/11/22 18:02:39;;;;;;;;;;;;;;;;;;4958230;29;19958;-83
2022/11/22 18:05:07;;;;;;;;;;;;;;;;;;4944467;29;19915;-84
2022/11/22 18:07:32;;;;;;;;;;;;;;;;;;4960328;29;19915;-83
2022/11/22 18:09:58;;;;;;;;;;;;;;;;;;4959446;29;19918;-84
2022/11/22 18:12:24;;;;;;;;;;;;;;;;;;4944124;29;19911;-83
2022/11/22 18:14:49;;;;;;;;;;;;;;;;;;4958335;28;19923;-84
2022/11/22 18:17:15;;;;;;;;;;;;;;;;;;4960247;29;19899;-84
2022/11/22 18:19:40;;;;;;;;;;;;;;;;;;4959574;29;19922;-84
2022/11/22 18:22:06;;;;;;;;;;;;;;;;;;4943700;29;19918;-84
2022/11/22 18:24:32;;;;;;;;;;;;;;;;;;4960341;29;19958;-84
2022/11/22 18:26:58;;;;;;;;;;;;;;;;;;4959375;29;19918;-83
2022/11/22 18:29:23;;;;;;;;;;;;;;;;;;4958336;29;19919;-84
2022/11/22 18:31:49;;;;;;;;;;;;;;;;;;4958426;29;19915;-84
2022/11/22 18:34:18;;;;;;;;;;;;;;;;;;4957641;29;19919;-84
2022/11/22 18:36:46;;;;;;;;;;;;;;;;;;4957017;29;19918;-83
2022/11/22 18:39:11;;;;;;;;;;;;;;;;;;4954168;29;19915;-83
2022/11/22 18:41:37;;;;;;;;;;;;;;;;;;4931964;29;19919;-83
2022/11/22 18:44:03;;;;;;;;;;;;;;;;;;4932307;29;19943;-83
2022/11/22 18:46:32;;;;;;;;;;;;;;;;;;4932259;29;19927;-83
2022/11/22 18:48:58;;;;;;;;;;;;;;;;;;4948795;29;19922;-83
2022/11/22 18:51:23;;;;;;;;;;;;;;;;;;4935176;29;19914;-83
2022/11/22 18:53:49;;;;;;;;;;;;;;;;;;4934057;29;19915;-83
2022/11/22 18:56:15;;;;;;;;;;;;;;;;;;4953943;29;19970;-83
2022/11/22 18:58:43;;;;;;;;;;;;;;;;;;4953063;29;19915;-84
2022/11/22 19:01:09;;;;;;;;;;;;;;;;;;4932171;29;19970;-84
2022/11/22 19:03:35;;;;;;;;;;;;;;;;;;4943277;29;19915;-83
2022/11/22 19:06:01;;;;;;;;;;;;;;;;;;4932068;29;19915;-84
2022/11/22 19:08:26;;;;;;;;;;;;;;;;;;4952118;29;19954;-83
2022/11/22 19:10:52;;;;;;;;;;;;;;;;;;4953211;29;19915;-83
2022/11/22 19:13:17;;;;;;;;;;;;;;;;;;4951510;29;19942;-82
2022/11/22 19:15:43;;;;;;;;;;;;;;;;;;4952753;29;19919;-83
2022/11/22 19:18:08;;;;;;;;;;;;;;;;;;4953029;29;19922;-83
2022/11/22 19:20:33;;;;;;;;;;;;;;;;;;4949772;29;20359;-82
2022/11/22 19:22:59;;;;;;;;;;;;;;;;;;4950618;29;19922;-83
2022/11/22 19:25:24;;;;;;;;;;;;;;;;;;4948795;29;19914;-82
2022/11/22 19:27:50;;;;;;;;;;;;;;;;;;4948720;29;19914;-82
2022/11/22 19:30:15;;;;;;;;;;;;;;;;;;4946992;29;19939;-82
2022/11/22 19:32:41;;;;;;;;;;;;;;;;;;4948042;29;19915;-83
2022/11/22 19:35:06;;;;;;;;;;;;;;;;;;4947976;29;20020;-82
2022/11/22 19:37:32;;;;;;;;;;;;;;;;;;4934425;29;19930;-82
2022/11/22 19:39:57;;;;;;;;;;;;;;;;;;4949136;29;19926;-82
2022/11/22 19:42:25;;;;;;;;;;;;;;;;;;4947915;29;19986;-83
2022/11/22 19:44:51;;;;;;;;;;;;;;;;;;4950428;29;19915;-82
2022/11/22 19:47:16;;;;;;;;;;;;;;;;;;4949500;29;19915;-82
2022/11/22 19:49:42;;;;;;;;;;;;;;;;;;4949716;29;20006;-82
2022/11/22 19:52:10;;;;;;;;;;;;;;;;;;4936726;29;19915;-83
2022/11/22 19:54:37;;;;;;;;;;;;;;;;;;4951080;29;19915;-83
2022/11/22 19:57:10;;;;;;;;;;;;;;;;;;4953973;29;19919;-83
2022/11/22 19:59:38;;;;;;;;;;;;;;;;;;4954183;29;19922;-82
2022/11/22 20:02:12;;;;;;;;;;;;;;;;;;4950382;29;19918;-82
2022/11/22 20:04:53;;;;;;;;;;;;;;;;;;4951649;29;19915;-82
2022/11/22 20:07:22;;;;;;;;;;;;;;;;;;4941720;29;19921;-81
2022/11/22 20:09:47;;;;;;;;;;;;;;;;;;4939935;29;20372;-82
2022/11/22 20:12:16;;;;;;;;;;;;;;;;;;4943366;29;19915;-83
2022/11/22 20:14:41;;;;;;;;;;;;;;;;;;4949978;29;19922;-83
2022/11/22 20:17:07;;;;;;;;;;;;;;;;;;4939265;29;19986;-83
2022/11/22 20:19:32;;;;;;;;;;;;;;;;;;4951555;29;20301;-83
2022/11/22 20:21:58;;;;;;;;;;;;;;;;;;4949514;29;19914;-82
2022/11/22 20:24:24;;;;;;;;;;;;;;;;;;4933694;29;19922;-83
2022/11/22 20:26:49;;;;;;;;;;;;;;;;;;4951903;29;19950;-83
2022/11/22 20:29:16;;;;;;;;;;;;;;;;;;4954426;29;19939;-83
2022/11/22 20:31:42;;;;;;;;;;;;;;;;;;4940023;29;20002;-83
2022/11/22 20:34:07;;;;;;;;;;;;;;;;;;4956321;29;19919;-83
2022/11/22 20:36:33;;;;;;;;;;;;;;;;;;4957476;29;19926;-83
2022/11/22 20:38:58;;;;;;;;;;;;;;;;;;4960471;28;19931;-82
2022/11/22 20:41:24;;;;;;;;;;;;;;;;;;4943956;29;20366;-83
2022/11/22 20:43:49;;;;;;;;;;;;;;;;;;4939976;29;19919;-81
2022/11/22 20:46:18;;;;;;;;;;;;;;;;;;4952720;29;20009;-82
2022/11/22 20:48:44;;;;;;;;;;;;;;;;;;4939191;29;19915;-79
2022/11/22 20:51:10;;;;;;;;;;;;;;;;;;4938975;29;20371;-79
2022/11/22 20:53:35;;;;;;;;;;;;;;;;;;4954998;29;19910;-83
2022/11/22 20:56:03;;;;;;;;;;;;;;;;;;4955315;28;20397;-82
2022/11/22 20:58:28;;;;;;;;;;;;;;;;;;4952878;28;19922;-81
2022/11/22 21:00:54;;;;;;;;;;;;;;;;;;4938537;29;19969;-79
2022/11/22 21:03:19;;;;;;;;;;;;;;;;;;4938720;29;20306;-80
2022/11/22 21:05:47;;;;;;;;;;;;;;;;;;4938155;29;19925;-79
2022/11/22 21:08:12;;;;;;;;;;;;;;;;;;4937802;29;19915;-79
2022/11/22 21:10:38;;;;;;;;;;;;;;;;;;4938876;29;19957;-79
2022/11/22 21:13:03;;;;;;;;;;;;;;;;;;4937987;29;20406;-79
2022/11/22 21:15:28;;;;;;;;;;;;;;;;;;4940031;29;19946;-80
2022/11/22 21:18:03;;;;;;;;;;;;;;;;;;5412144;23;19950;-84
2022/11/22 21:23:25;;;;;;;;;;;;;;;;;;5112565;23;19930;-83
2022/11/22 21:25:50;;;;;;;;;;;;;;;;;;4964430;29;19899;-83
2022/11/22 21:28:18;;;;;;;;;;;;;;;;;;4962975;29;22017;-84
2022/11/22 21:30:43;;;;;;;;;;;;;;;;;;4982021;28;19925;-83
2022/11/22 21:33:09;;;;;;;;;;;;;;;;;;4981295;28;19921;-83
2022/11/22 21:35:34;;;;;;;;;;;;;;;;;;4965612;28;19915;-83
2022/11/22 21:38:00;;;;;;;;;;;;;;;;;;4982204;28;19944;-84
2022/11/22 21:43:07;;;;;;;;;;;;;;;;;;5664973;23;19923;-84
2022/11/22 21:45:32;;;;;;;;;;;;;;;;;;5363491;23;20003;-82
2022/11/22 21:47:58;;;;;;;;;;;;;;;;;;4978671;28;19925;-84
2022/11/22 21:50:24;;;;;;;;;;;;;;;;;;4971507;29;19915;-84
2022/11/22 21:52:49;;;;;;;;;;;;;;;;;;4978816;29;19914;-84
2022/11/22 21:55:15;;;;;;;;;;;;;;;;;;4973992;28;19933;-82
2022/11/22 21:57:41;;;;;;;;;;;;;;;;;;4951369;29;19923;-82
2022/11/22 22:00:06;;;;;;;;;;;;;;;;;;4967153;29;19911;-82
2022/11/22 22:02:32;;;;;;;;;;;;;;;;;;4970957;28;19914;-82
2022/11/22 22:04:57;;;;;;;;;;;;;;;;;;4968374;29;19958;-82
2022/11/22 22:07:22;;;;;;;;;;;;;;;;;;4968344;29;19915;-83
2022/11/22 22:09:48;;;;;;;;;;;;;;;;;;4969496;28;20370;-82
2022/11/22 22:12:14;;;;;;;;;;;;;;;;;;4974253;29;19915;-82
2022/11/22 22:14:39;;;;;;;;;;;;;;;;;;4970102;29;20013;-82
2022/11/22 22:17:05;;;;;;;;;;;;;;;;;;4970670;29;19929;-82
2022/11/22 22:19:31;;;;;;;;;;;;;;;;;;4974071;29;19917;-83
2022/11/22 22:21:56;;;;;;;;;;;;;;;;;;4960374;29;19914;-82
2022/11/22 22:24:22;;;;;;;;;;;;;;;;;;4977624;29;19921;-82
2022/11/22 22:26:48;;;;;;;;;;;;;;;;;;4977373;29;19922;-83
2022/11/22 22:29:16;;;;;;;;;;;;;;;;;;4962507;29;19929;-83
2022/11/22 22:31:42;;;;;;;;;;;;;;;;;;4977413;29;19898;-83
2022/11/22 22:34:07;;;;;;;;;;;;;;;;;;4961757;29;19956;-82
2022/11/22 22:36:33;;;;;;;;;;;;;;;;;;4969968;28;19926;-81
2022/11/22 22:38:58;;;;;;;;;;;;;;;;;;4966758;28;19918;-81
2022/11/22 22:41:24;;;;;;;;;;;;;;;;;;4964188;29;19899;-80
2022/11/22 22:43:49;;;;;;;;;;;;;;;;;;4973495;28;19907;-83
2022/11/22 22:46:27;;;;;;;;;;;;;;;;;;4963123;28;19910;-84
2022/11/22 22:48:58;;;;;;;;;;;;;;;;;;5634359;23;19978;-85
2022/11/22 22:51:28;;;;;;;;;;;;;;;;;;4929966;28;19925;-84
2022/11/22 22:54:04;;;;;;;;;;;;;;;;;;4929161;28;19903;-84
2022/11/22 22:56:34;;;;;;;;;;;;;;;;;;5393516;23;19918;-83
2022/11/22 23:02:00;;;;;;;;;;;;;;;;;;4940271;29;19947;-84
2022/11/22 23:04:32;;;;;;;;;;;;;;;;;;4926884;29;20033;-84
2022/11/22 23:06:57;;;;;;;;;;;;;;;;;;4926729;29;19903;-83
2022/11/22 23:09:46;;;;;;;;;;;;;;;;;;5186295;23;19921;-85
2022/11/22 23:12:17;;;;;;;;;;;;;;;;;;4929123;29;19919;-84
2022/11/22 23:14:46;;;;;;;;;;;;;;;;;;4942910;29;19969;-83
2022/11/22 23:17:17;;;;;;;;;;;;;;;;;;4960259;29;19927;-83
2022/11/22 23:19:45;;;;;;;;;;;;;;;;;;5196494;23;19946;-83
2022/11/22 23:22:13;;;;;;;;;;;;;;;;;;4958905;29;19919;-81
2022/11/22 23:24:38;;;;;;;;;;;;;;;;;;4985449;23;20421;-81
2022/11/22 23:27:04;;;;;;;;;;;;;;;;;;4961438;29;19922;-80
2022/11/22 23:29:29;;;;;;;;;;;;;;;;;;4940990;29;20338;-81
2022/11/22 23:31:55;;;;;;;;;;;;;;;;;;4920457;29;19919;-80
2022/11/22 23:34:20;;;;;;;;;;;;;;;;;;4936074;29;19915;-80
2022/11/22 23:36:45;;;;;;;;;;;;;;;;;;4934529;29;19927;-80
2022/11/22 23:39:11;;;;;;;;;;;;;;;;;;4918660;29;19915;-80
2022/11/22 23:41:36;;;;;;;;;;;;;;;;;;4935598;29;19969;-80
2022/11/22 23:44:01;;;;;;;;;;;;;;;;;;4937168;29;20287;-80
2022/11/22 23:46:27;;;;;;;;;;;;;;;;;;4939101;29;19914;-81
2022/11/22 23:48:53;;;;;;;;;;;;;;;;;;4941460;29;19914;-81
2022/11/22 23:51:18;;;;;;;;;;;;;;;;;;4946168;29;20343;-81
2022/11/22 23:53:43;;;;;;;;;;;;;;;;;;4938909;29;19989;-81
2022/11/22 23:56:09;;;;;;;;;;;;;;;;;;4940019;29;19923;-80
2022/11/22 23:58:34;;;;;;;;;;;;;;;;;;4937782;29;19915;-80
